Flight Track Log - Related Links

Times and Time Zones

All times are in EDT time to prevent confusion due to time zone crossing. See the HAL303 flight status page for this flight to view local times or setup timezone preferences in your user account.

Time Position Orientation Groundspeed Altitude Reporting Facility
EDT Latitude Longitude Course Direction KTS MPH feet Rate Location/Type
Sun 02:46:55 PM 21.3000 -157.9000 270° West 170 196 1,000  Level Honolulu Center
Sun 02:47:55 PM 21.2500 -157.9000 180° South 220 253 2,500 2,000 Climbing Honolulu Center
Sun 02:48:55 PM 21.2333 -157.9667 255° West 240 276 5,000 2,400 Climbing Honolulu Center
Sun 02:49:00 PM 21.3000 -158.1327 270° West  Level FlightAware Approximate
Sun 02:49:55 PM 21.2167 -158.0333 255° West 250 288 7,300  Level Honolulu Center
Sun 02:50:00 PM 21.3000 -158.2051 270° West  Level FlightAware Approximate
Sun 02:50:56 PM 21.2333 -158.1167 282° West 250 288 9,800  Level Honolulu Center
Sun 02:51:00 PM 21.3000 -158.2776 270° West  Level FlightAware Approximate
Sun 02:51:56 PM 21.2500 -158.2000 282° West 290 334 11,200  Level Honolulu Center
Sun 02:52:00 PM 21.3000 -158.3500 270° West  Level FlightAware Approximate
Sun 02:52:56 PM 21.2667 -158.3000 280° West 320 368 12,000  Level Honolulu Center
Sun 02:53:56 PM 21.2833 -158.3833 282° West 320 368 12,000  Level Honolulu Center
Sun 02:54:56 PM 21.3167 -158.4833 290° West 320 368 12,000  Level Honolulu Center
Sun 02:55:56 PM 21.3500 -158.5667 293° West 320 368 12,000 -200 Level Honolulu Center
Sun 02:56:56 PM 21.4000 -158.6333 309° West 300 345 11,600 -1,150 Descending Honolulu Center
Sun 02:57:56 PM 21.4333 -158.7167 293° West 280 322 9,700 -1,950 Descending Honolulu Center
Sun 02:58:56 PM 21.4833 -158.7833 309° West 280 322 7,700 -1,983 Descending Honolulu Center
Sun 02:59:57 PM 21.5167 -158.8500 298° West 280 322 5,700 -1,700 Descending Honolulu Center
Sun 03:00:56 PM 21.5500 -158.9167 298° West 270 311 4,300 -1,250 Descending Honolulu Center
Sun 03:01:57 PM 21.6000 -159.0000 303° West 260 299 3,200 -645 Descending Honolulu Center
Sun 03:02:57 PM 21.6333 -159.0667 298° West 260 299 3,000 -100 Descending Honolulu Center
Sun 03:03:57 PM 21.6667 -159.1333 298° West 270 311 3,000  Level Honolulu Center
Sun 03:04:57 PM 21.7000 -159.2000 298° West 260 299 3,000 -150 Level Honolulu Center
Sun 03:05:57 PM 21.7500 -159.2500 317° Northwest 260 299 2,700 -550 Descending Honolulu Center
Sun 03:06:57 PM 21.8167 -159.2833 335° Northwest 240 276 1,900 -545 Descending Honolulu Center
Sun 03:07:58 PM 21.8667 -159.3167 328° Northwest 200 230 1,600 -450 Descending Honolulu Center
Sun 03:08:57 PM 21.9000 -159.3333 335° Northwest 130 150 1,000 -655 Descending Honolulu Center
Sun 03:09:57 PM 21.9500 -159.3333 360° North 120 138 300 -700 Descending Honolulu Center

Login

Don't have an account? Register now (free) for customized features, flight alerts, and more!